Kuba, Azerbaijan

12:40 PM AZST on September 03, 2014 (GMT +0500)
Gabala International Airport | Change Station
CLOSE
Current Station
Airport
Location: Gabala International Airport,
Elevation: 1109 ft
Nearby Weather Stations

Elev 1109 ft 40.81 °N, 47.73 °E | Updated 40 minutes ago

Scattered Clouds
Scattered Clouds
84 °F
Feels Like 86 °F
N
2
Wind Variable Wind from Variable

Today
High -- | Low -- °F
--% Chance of Precip.
Yesterday
High -- | Low -- °F
Precip. -- in
7:13 AM 8:16 PM
First Quarter, 59% visible
Pressure 29.95 in
Visibility 6.2 miles
Clouds Scattered Clouds 20000 ft
Heat Index 86 °F
Dew Point 64 °F
Humidity 51%
Rainfall 0.00 in
Snow Depth Not available.
UV 5 out of 12
Pollen Not available.
Air Quality Not available.
Flu Activity Not available.
METAR UBBQ 030700Z VRB02KT 9999 SCT200 29/18 Q1014 R16/CLRD70 NOSIG RMK MT OP

More Conditions Fewer Conditions

Pressure 29.95 in
Visibility 6.2 miles
Clouds Scattered Clouds 20000 ft
Heat Index 86 °F
Dew Point 64 °F
Humidity 51%
Rainfall 0.00 in
Snow Depth Not available.
UV 5 out of 12
Pollen Not available.
Air Quality Not available.
Flu Activity Not available.
METAR UBBQ 030700Z VRB02KT 9999 SCT200 29/18 Q1014 R16/CLRD70 NOSIG RMK MT OP

More Conditions Fewer Conditions

10-Day Weather Forecast

Almanac

Astronomy

Sep. 03, 2014 Rise Set
Actual Time 7:13 AM AZST 8:16 PM AZST
Civil Twilight 6:45 AM AZST 8:44 PM AZST
Nautical Twilight 6:11 AM AZST 9:18 PM AZST
Astronomical Twilight 5:36 AM AZST 9:53 PM AZST
Moon 3:38 PM AZST 12:45 AM AZST
Length of Visible Light 13h 58m
Length of Day
13h 02m
Tomorrow will be 2m 40s shorter.
First Quarter, 59% of the Moon is Illuminated
Today
First Quarter
Sep 8
Full
Sep 15
Last Quarter
Sep 24
New
Oct 1
First Quarter

Yesterday's Extremes

Country Highs Country Lows

Community

WunderPhotos

Upload Photos

1,749,899 photos uploaded!

Nearby

Snow Depth

Not available.

Earthquake Activity

City Distance Mag. Time & Date
No recent earthquake activity has been reported nearby.
Minimum magnitude displayed is 2.5.

Coastal Water Temperatures

Place Temperature
No Stations Reporting

Nearby Weather Stations